Tasman Crusader — A8NQ7 — position and weather

sailwx.info

Track history (hours):
 
Tides and Currents Weather Stations Pressure Air Temp Water Temp Dewpoint Dewpoint Depression Visibility Wind Speed Wind Dir Waves Ship Positions

Tasman Crusader

Last reported at 2014-Nov-13 01:28 UTC. Time now 2014-Nov-28 22:57 UTC.
Position N 30°59' W 118°32'.
Warning: this ship's position is 15 days out of date.

Length 186 m; draft 9.6 m.

Type: Cargo ship. MMSI: 636091434.

Date/timePositionNaut miles runAvg speedWind from/ knotsBaromVisibWave heightAir tempDewpointWater temp
2014-Nov-13 01:28N 30°59' W 118°32'8215.4
2014-Nov-12 20:10N 32°05' W 119°30'9016.0
2014-Nov-12 14:30N 33°17' W 120°34'1615.6
2014-Nov-12 13:31N 33°30' W 120°45'25815.2
2014-Nov-11 20:32N 37°22' W 123°04'1010.3
2014-Nov-11 19:33N 37°32' W 123°04'10 9.5
2014-Nov-11 18:33N 37°38' W 122°55'10 9.9
2014-Nov-11 17:33N 37°44' W 122°45'1010.2
2014-Nov-11 16:33N 37°48' W 122°33'1010.3
2014-Nov-11 15:34N 37°49' W 122°20'1 0.5
2014-Nov-11 14:33N 37°49' W 122°19'0 0.0
2014-Nov-11 13:33N 37°49' W 122°19'0 0.0
2014-Nov-11 12:33N 37°49' W 122°19'0 0.0
2014-Nov-11 11:30N 37°49' W 122°19'0 0.0
2014-Nov-11 10:33N 37°49' W 122°19'0 0.0
2014-Nov-11 09:33N 37°49' W 122°19'0 0.0
2014-Nov-11 08:33N 37°49' W 122°19'0 0.0
2014-Nov-11 07:33N 37°49' W 122°19'0 0.0
2014-Nov-11 06:33N 37°49' W 122°19'0 0.0
2014-Nov-11 05:33N 37°49' W 122°19'0 0.0
2014-Nov-11 04:33N 37°49' W 122°19'1 0.9
2014-Nov-11 03:33N 37°49' W 122°20'1110.8
2014-Nov-11 02:33N 37°47' W 122°34'1010.0
2014-Nov-11 01:33N 37°38' W 122°40'2517.3
2014-Nov-11 00:08N 37°14' W 122°40'1017.6
2014-Nov-10 23:33N 37°03' W 122°40'1717.4
2014-Nov-10 22:33N 36°46' W 122°39'3618.0
2014-Nov-10 20:32N 36°11' W 122°25'2319.7
2014-Nov-10 19:22N 35°52' W 122°09'12618.4
2014-Nov-10 12:31N 34°20' W 120°24'1616.7
2014-Nov-10 11:33N 34°16' W 120°05'1616.3
2014-Nov-10 10:33N 34°11' W 119°46'1716.7
2014-Nov-10 09:33N 34°07' W 119°27'1616.3
2014-Nov-10 08:33N 34°01' W 119°08'1313.3
2014-Nov-10 07:33N 33°55' W 118°55'1211.9
2014-Nov-10 06:33N 33°49' W 118°42'1211.8
2014-Nov-10 05:33N 33°43' W 118°30'1211.5
2014-Nov-10 04:33N 33°38' W 118°17'8 7.5
2014-Nov-10 03:33N 33°45' W 118°13'2 1.8
2014-Nov-10 02:32N 33°46' W 118°14'0 0.0
2014-Nov-10 01:32N 33°46' W 118°14'0 0.0
2014-Nov-10 00:32N 33°46' W 118°14'0 0.0
2014-Nov-09 23:32N 33°46' W 118°14'0 0.0
2014-Nov-09 22:32N 33°46' W 118°14'0 0.0
2014-Nov-09 21:32N 33°46' W 118°14'0 0.0
2014-Nov-09 20:32N 33°46' W 118°14'0 0.0
2014-Nov-09 19:32N 33°46' W 118°14'0 0.0
2014-Nov-09 18:32N 33°46' W 118°14'0 0.0
2014-Nov-09 17:32N 33°46' W 118°14'1 1.4
2014-Nov-09 16:33N 33°45' W 118°13'4 4.1
2014-Nov-09 15:31N 33°43' W 118°09'0 0.1
2014-Nov-09 14:31N 33°43' W 118°09'0 0.1
2014-Nov-09 13:31N 33°43' W 118°09'0 0.1
2014-Nov-09 12:31N 33°43' W 118°09'0 0.1
2014-Nov-09 11:31N 33°43' W 118°09'0 0.1
2014-Nov-09 10:31N 33°43' W 118°09'0 0.1
2014-Nov-09 09:31N 33°43' W 118°09'0 0.1
2014-Nov-09 08:31N 33°43' W 118°09'0 0.1
2014-Nov-09 07:31N 33°43' W 118°09'0 0.0
2014-Nov-09 06:31N 33°43' W 118°09'0 0.0
2014-Nov-09 05:31N 33°43' W 118°09'0 0.0
2014-Nov-09 04:31N 33°43' W 118°09'0 0.0
2014-Nov-09 03:31N 33°43' W 118°09'0 0.1
2014-Nov-09 02:31N 33°43' W 118°09'0 0.0
2014-Nov-09 01:31N 33°43' W 118°09'0 0.0
2014-Nov-09 00:31N 33°43' W 118°09'0 0.0
2014-Nov-08 23:31N 33°43' W 118°09'0 0.1
2014-Nov-08 22:31N 33°43' W 118°09'0 0.0
2014-Nov-08 21:31N 33°43' W 118°09'0 0.1
2014-Nov-08 20:31N 33°43' W 118°09'0 0.0
2014-Nov-08 19:31N 33°43' W 118°09'0 0.1
2014-Nov-08 18:31N 33°43' W 118°09'0 0.1
2014-Nov-08 17:31N 33°43' W 118°09'0 0.1
2014-Nov-08 16:31N 33°43' W 118°09'0 0.1
2014-Nov-08 15:31N 33°43' W 118°09'0 0.1
2014-Nov-08 14:31N 33°43' W 118°09'0 0.1
2014-Nov-08 13:31N 33°43' W 118°09'0 0.1
2014-Nov-08 12:31N 33°43' W 118°09'3 2.7
2014-Nov-08 11:34N 33°40' W 118°10'7 7.0
2014-Nov-08 10:33N 33°36' W 118°17'7 7.1
2014-Nov-08 09:33N 33°38' W 118°25'7 7.1
2014-Nov-08 08:33N 33°41' W 118°32'7 7.0
2014-Nov-08 07:34N 33°45' W 118°40'7 6.9
2014-Nov-08 06:33N 33°48' W 118°47'7 6.7
2014-Nov-08 05:33N 33°51' W 118°54'7 6.8
2014-Nov-08 04:34N 33°55' W 119°01'8 7.5
2014-Nov-08 03:33N 33°59' W 119°09'7 7.2
2014-Nov-08 02:34N 34°02' W 119°16'7 7.1
2014-Nov-08 01:34N 34°09' W 119°13'0 0.4
2014-Nov-08 00:33N 34°09' W 119°12'0 0.0
2014-Nov-07 23:33N 34°09' W 119°12'0 0.0
2014-Nov-07 22:33N 34°09' W 119°12'0 0.0
2014-Nov-07 21:33N 34°09' W 119°12'0 0.0
2014-Nov-07 20:33N 34°09' W 119°12'0 0.0
2014-Nov-07 19:30N 34°09' W 119°12'0 0.0
2014-Nov-07 18:27N 34°09' W 119°12'0 0.0
2014-Nov-07 17:33N 34°09' W 119°12'0 0.0
2014-Nov-07 16:30N 34°09' W 119°12'0 0.0
2014-Nov-07 15:33N 34°09' W 119°12'0 0.0
2014-Nov-07 14:33N 34°09' W 119°12'0 0.0
2014-Nov-07 13:33N 34°09' W 119°12'0 0.0
2014-Nov-07 12:33N 34°09' W 119°12'0 0.0
2014-Nov-07 11:30N 34°09' W 119°12'0 0.0
2014-Nov-07 10:33N 34°09' W 119°12'0 0.0
2014-Nov-07 09:33N 34°09' W 119°12'0 0.0
2014-Nov-07 08:33N 34°09' W 119°12'0 0.0
2014-Nov-07 07:33N 34°09' W 119°12'0 0.0
2014-Nov-07 06:30N 34°09' W 119°12'0 0.0
2014-Nov-07 05:33N 34°09' W 119°12'0 0.0
2014-Nov-07 04:33N 34°09' W 119°12'0 0.0
2014-Nov-07 03:33N 34°09' W 119°12'0 0.0
2014-Nov-07 02:33N 34°09' W 119°12'0 0.0
2014-Nov-07 01:33N 34°09' W 119°12'0 0.0
2014-Nov-07 00:33N 34°09' W 119°12'0 0.0
2014-Nov-06 23:33N 34°09' W 119°12'0 0.0
2014-Nov-06 22:33N 34°09' W 119°12'0 0.0
2014-Nov-06 15:33N 34°09' W 119°12'0 0.0
2014-Nov-06 14:33N 34°09' W 119°12'0 0.0
2014-Nov-06 13:21N 34°09' W 119°12'0 0.0
2014-Nov-06 12:33N 34°09' W 119°12'0 0.0
2014-Nov-06 11:33N 34°09' W 119°12'0 0.0
2014-Nov-06 10:33N 34°09' W 119°12'0 0.0
2014-Nov-06 09:33N 34°09' W 119°12'0 0.0
2014-Nov-06 08:33N 34°09' W 119°12'0 0.0
2014-Nov-06 07:33N 34°09' W 119°12'0 0.0
2014-Nov-06 06:33N 34°09' W 119°12'0 0.0
2014-Nov-06 05:33N 34°09' W 119°12'0 0.0
2014-Nov-06 04:33N 34°09' W 119°12'0 0.0
2014-Nov-06 03:33N 34°09' W 119°12'0 0.0
2014-Nov-06 02:33N 34°09' W 119°12'0 0.0
2014-Nov-06 01:33N 34°09' W 119°12'1 1.0
2014-Nov-06 00:33N 34°08' W 119°13'7 6.8
2014-Nov-05 23:33N 34°02' W 119°10'1210.6
2014-Nov-05 22:26N 33°56' W 118°58'1010.4
2014-Nov-05 21:31N 33°51' W 118°48'1010.6
2014-Nov-05 20:33N 33°46' W 118°37'1110.9
2014-Nov-05 19:33N 33°41' W 118°26'1110.7
2014-Nov-05 18:33N 33°37' W 118°14'9 9.3
2014-Nov-05 17:33N 33°29' W 118°07'1010.3
2014-Nov-05 16:33N 33°20' W 118°03'1110.5
2014-Nov-05 15:33N 33°10' W 117°59'1010.5
2014-Nov-05 14:33N 33°00' W 117°54'1110.8
2014-Nov-05 13:33N 32°50' W 117°50'1110.7
2014-Nov-05 12:33N 32°40' W 117°46'9 8.9
2014-Nov-05 11:34N 32°32' W 117°42'1515.2
2014-Nov-05 10:33N 32°17' W 117°35'1515.1
2014-Nov-05 09:33N 32°03' W 117°30'1515.1
2014-Nov-05 08:34N 31°49' W 117°24'1514.9
2014-Nov-05 07:34N 31°35' W 117°18'1514.7
2014-Nov-05 06:34N 31°21' W 117°12'8714.5
2014-Nov-05 00:33N 29°59' W 116°38'1413.9
2014-Nov-04 23:33N 29°46' W 116°33'  
Track history (hours):
 
Tides and Currents Weather Stations Pressure Air Temp Water Temp Dewpoint Dewpoint Depression Visibility Wind Speed Wind Dir Waves Ship Positions

Tasman Crusader

Last reported at 2014-Nov-13 01:28 UTC. Time now 2014-Nov-28 22:57 UTC.
Position N 30°59' W 118°32'.
Warning: this ship's position is 15 days out of date.

Length 186 m; draft 9.6 m.

Type: Cargo ship. MMSI: 636091434.

Date/timePositionNaut miles runAvg speedWind from/ knotsBaromVisibWave heightAir tempDewpointWater temp
2014-Nov-13 01:28N 30°59' W 118°32'8215.4
2014-Nov-12 20:10N 32°05' W 119°30'9016.0
2014-Nov-12 14:30N 33°17' W 120°34'1615.6
2014-Nov-12 13:31N 33°30' W 120°45'25815.2
2014-Nov-11 20:32N 37°22' W 123°04'1010.3
2014-Nov-11 19:33N 37°32' W 123°04'10 9.5
2014-Nov-11 18:33N 37°38' W 122°55'10 9.9
2014-Nov-11 17:33N 37°44' W 122°45'1010.2
2014-Nov-11 16:33N 37°48' W 122°33'1010.3
2014-Nov-11 15:34N 37°49' W 122°20'1 0.5
2014-Nov-11 14:33N 37°49' W 122°19'0 0.0
2014-Nov-11 13:33N 37°49' W 122°19'0 0.0
2014-Nov-11 12:33N 37°49' W 122°19'0 0.0
2014-Nov-11 11:30N 37°49' W 122°19'0 0.0
2014-Nov-11 10:33N 37°49' W 122°19'0 0.0
2014-Nov-11 09:33N 37°49' W 122°19'0 0.0
2014-Nov-11 08:33N 37°49' W 122°19'0 0.0
2014-Nov-11 07:33N 37°49' W 122°19'0 0.0
2014-Nov-11 06:33N 37°49' W 122°19'0 0.0
2014-Nov-11 05:33N 37°49' W 122°19'0 0.0
2014-Nov-11 04:33N 37°49' W 122°19'1 0.9
2014-Nov-11 03:33N 37°49' W 122°20'1110.8
2014-Nov-11 02:33N 37°47' W 122°34'1010.0
2014-Nov-11 01:33N 37°38' W 122°40'2517.3
2014-Nov-11 00:08N 37°14' W 122°40'1017.6
2014-Nov-10 23:33N 37°03' W 122°40'1717.4
2014-Nov-10 22:33N 36°46' W 122°39'3618.0
2014-Nov-10 20:32N 36°11' W 122°25'2319.7
2014-Nov-10 19:22N 35°52' W 122°09'12618.4
2014-Nov-10 12:31N 34°20' W 120°24'1616.7
2014-Nov-10 11:33N 34°16' W 120°05'1616.3
2014-Nov-10 10:33N 34°11' W 119°46'1716.7
2014-Nov-10 09:33N 34°07' W 119°27'1616.3
2014-Nov-10 08:33N 34°01' W 119°08'1313.3
2014-Nov-10 07:33N 33°55' W 118°55'1211.9
2014-Nov-10 06:33N 33°49' W 118°42'1211.8
2014-Nov-10 05:33N 33°43' W 118°30'1211.5
2014-Nov-10 04:33N 33°38' W 118°17'8 7.5
2014-Nov-10 03:33N 33°45' W 118°13'2 1.8
2014-Nov-10 02:32N 33°46' W 118°14'0 0.0
2014-Nov-10 01:32N 33°46' W 118°14'0 0.0
2014-Nov-10 00:32N 33°46' W 118°14'0 0.0
2014-Nov-09 23:32N 33°46' W 118°14'0 0.0
2014-Nov-09 22:32N 33°46' W 118°14'0 0.0
2014-Nov-09 21:32N 33°46' W 118°14'0 0.0
2014-Nov-09 20:32N 33°46' W 118°14'0 0.0
2014-Nov-09 19:32N 33°46' W 118°14'0 0.0
2014-Nov-09 18:32N 33°46' W 118°14'0 0.0
2014-Nov-09 17:32N 33°46' W 118°14'1 1.4
2014-Nov-09 16:33N 33°45' W 118°13'4 4.1
2014-Nov-09 15:31N 33°43' W 118°09'0 0.1
2014-Nov-09 14:31N 33°43' W 118°09'0 0.1
2014-Nov-09 13:31N 33°43' W 118°09'0 0.1
2014-Nov-09 12:31N 33°43' W 118°09'0 0.1
2014-Nov-09 11:31N 33°43' W 118°09'0 0.1
2014-Nov-09 10:31N 33°43' W 118°09'0 0.1
2014-Nov-09 09:31N 33°43' W 118°09'0 0.1
2014-Nov-09 08:31N 33°43' W 118°09'0 0.1
2014-Nov-09 07:31N 33°43' W 118°09'0 0.0
2014-Nov-09 06:31N 33°43' W 118°09'0 0.0
2014-Nov-09 05:31N 33°43' W 118°09'0 0.0
2014-Nov-09 04:31N 33°43' W 118°09'0 0.0
2014-Nov-09 03:31N 33°43' W 118°09'0 0.1
2014-Nov-09 02:31N 33°43' W 118°09'0 0.0
2014-Nov-09 01:31N 33°43' W 118°09'0 0.0
2014-Nov-09 00:31N 33°43' W 118°09'0 0.0
2014-Nov-08 23:31N 33°43' W 118°09'0 0.1
2014-Nov-08 22:31N 33°43' W 118°09'0 0.0
2014-Nov-08 21:31N 33°43' W 118°09'0 0.1
2014-Nov-08 20:31N 33°43' W 118°09'0 0.0
2014-Nov-08 19:31N 33°43' W 118°09'0 0.1
2014-Nov-08 18:31N 33°43' W 118°09'0 0.1
2014-Nov-08 17:31N 33°43' W 118°09'0 0.1
2014-Nov-08 16:31N 33°43' W 118°09'0 0.1
2014-Nov-08 15:31N 33°43' W 118°09'0 0.1
2014-Nov-08 14:31N 33°43' W 118°09'0 0.1
2014-Nov-08 13:31N 33°43' W 118°09'0 0.1
2014-Nov-08 12:31N 33°43' W 118°09'3 2.7
2014-Nov-08 11:34N 33°40' W 118°10'7 7.0
2014-Nov-08 10:33N 33°36' W 118°17'7 7.1
2014-Nov-08 09:33N 33°38' W 118°25'7 7.1
2014-Nov-08 08:33N 33°41' W 118°32'7 7.0
2014-Nov-08 07:34N 33°45' W 118°40'7 6.9
2014-Nov-08 06:33N 33°48' W 118°47'7 6.7
2014-Nov-08 05:33N 33°51' W 118°54'7 6.8
2014-Nov-08 04:34N 33°55' W 119°01'8 7.5
2014-Nov-08 03:33N 33°59' W 119°09'7 7.2
2014-Nov-08 02:34N 34°02' W 119°16'7 7.1
2014-Nov-08 01:34N 34°09' W 119°13'0 0.4
2014-Nov-08 00:33N 34°09' W 119°12'0 0.0
2014-Nov-07 23:33N 34°09' W 119°12'0 0.0
2014-Nov-07 22:33N 34°09' W 119°12'0 0.0
2014-Nov-07 21:33N 34°09' W 119°12'0 0.0
2014-Nov-07 20:33N 34°09' W 119°12'0 0.0
2014-Nov-07 19:30N 34°09' W 119°12'0 0.0
2014-Nov-07 18:27N 34°09' W 119°12'0 0.0
2014-Nov-07 17:33N 34°09' W 119°12'0 0.0
2014-Nov-07 16:30N 34°09' W 119°12'0 0.0
2014-Nov-07 15:33N 34°09' W 119°12'0 0.0
2014-Nov-07 14:33N 34°09' W 119°12'0 0.0
2014-Nov-07 13:33N 34°09' W 119°12'0 0.0
2014-Nov-07 12:33N 34°09' W 119°12'0 0.0
2014-Nov-07 11:30N 34°09' W 119°12'0 0.0
2014-Nov-07 10:33N 34°09' W 119°12'0 0.0
2014-Nov-07 09:33N 34°09' W 119°12'0 0.0
2014-Nov-07 08:33N 34°09' W 119°12'0 0.0
2014-Nov-07 07:33N 34°09' W 119°12'0 0.0
2014-Nov-07 06:30N 34°09' W 119°12'0 0.0
2014-Nov-07 05:33N 34°09' W 119°12'0 0.0
2014-Nov-07 04:33N 34°09' W 119°12'0 0.0
2014-Nov-07 03:33N 34°09' W 119°12'0 0.0
2014-Nov-07 02:33N 34°09' W 119°12'0 0.0
2014-Nov-07 01:33N 34°09' W 119°12'0 0.0
2014-Nov-07 00:33N 34°09' W 119°12'0 0.0
2014-Nov-06 23:33N 34°09' W 119°12'0 0.0
2014-Nov-06 22:33N 34°09' W 119°12'0 0.0
2014-Nov-06 15:33N 34°09' W 119°12'0 0.0
2014-Nov-06 14:33N 34°09' W 119°12'0 0.0
2014-Nov-06 13:21N 34°09' W 119°12'0 0.0
2014-Nov-06 12:33N 34°09' W 119°12'0 0.0
2014-Nov-06 11:33N 34°09' W 119°12'0 0.0
2014-Nov-06 10:33N 34°09' W 119°12'0 0.0
2014-Nov-06 09:33N 34°09' W 119°12'0 0.0
2014-Nov-06 08:33N 34°09' W 119°12'0 0.0
2014-Nov-06 07:33N 34°09' W 119°12'0 0.0
2014-Nov-06 06:33N 34°09' W 119°12'0 0.0
2014-Nov-06 05:33N 34°09' W 119°12'0 0.0
2014-Nov-06 04:33N 34°09' W 119°12'0 0.0
2014-Nov-06 03:33N 34°09' W 119°12'0 0.0
2014-Nov-06 02:33N 34°09' W 119°12'0 0.0
2014-Nov-06 01:33N 34°09' W 119°12'1 1.0
2014-Nov-06 00:33N 34°08' W 119°13'7 6.8
2014-Nov-05 23:33N 34°02' W 119°10'1210.6
2014-Nov-05 22:26N 33°56' W 118°58'1010.4
2014-Nov-05 21:31N 33°51' W 118°48'1010.6
2014-Nov-05 20:33N 33°46' W 118°37'1110.9
2014-Nov-05 19:33N 33°41' W 118°26'1110.7
2014-Nov-05 18:33N 33°37' W 118°14'9 9.3
2014-Nov-05 17:33N 33°29' W 118°07'1010.3
2014-Nov-05 16:33N 33°20' W 118°03'1110.5
2014-Nov-05 15:33N 33°10' W 117°59'1010.5
2014-Nov-05 14:33N 33°00' W 117°54'1110.8
2014-Nov-05 13:33N 32°50' W 117°50'1110.7
2014-Nov-05 12:33N 32°40' W 117°46'9 8.9
2014-Nov-05 11:34N 32°32' W 117°42'1515.2
2014-Nov-05 10:33N 32°17' W 117°35'1515.1
2014-Nov-05 09:33N 32°03' W 117°30'1515.1
2014-Nov-05 08:34N 31°49' W 117°24'1514.9
2014-Nov-05 07:34N 31°35' W 117°18'1514.7
2014-Nov-05 06:34N 31°21' W 117°12'8714.5
2014-Nov-05 00:33N 29°59' W 116°38'1413.9
2014-Nov-04 23:33N 29°46' W 116°33'  

Dump ship's entire track history